Pagrindinis puslapis
METAR-TAF:

METAR-TAF

Oro uostai :

Nadžranas, Saudo Arabija

platuma: 17-37N, ilguma: 044-25E, Aukštis: 1212 m

Dabartinis oras

Ataskaita buvo paskelbta 1 valandą ir 12 minutes, ne 11:00 UTC
Vėjas 7 kt iš Pietryčių
Temperatūra 27°C
Drėgmė 24%
Slėgis 1017 hPa
Matomumas 10 km arba daugiau
nėra debesų žemiau 1500 m ir nėra kamuolinių lietaus debesų

METAR: OENG 151100Z 14007KT CAVOK 27/05 Q1017 NOSIG

Laikas: 15:12 (12:12 UTC)

Prognozė

Ataskaita buvo paskelbta 1 valandą ir 12 minutes, ne 11:00 UTC
Prognozė galioja nuo 15 metu 12 UTC su 16 metu 18 UTC
Vėjas 13 kt iš Rytų
Matomumas: 7000 m
Mažai debesys ne aukštis 3000 ft
Tapsmas
nuo 15 metu 18 UTC su 15 metu 20 UTC
Vėjas 3 kt nuo kintamojo kryptimis

TAF: OENG 151100Z 1512/1618 09013KT 7000 FEW030 BECMG 1518/1520 VRB03KT

Orai ataskaitas ir orų prognozės (METAR, TAF).

turimą stotys yra geltonos ir raudonos taškus žemėlapyje.

Perkelti pele per norėdami pamatyti stoties vardą.

Tada spustelėkite, norėdami matyti oro stebėjimo ir prognozės.

Norėdami pakeisti žemėlapį: spustelėkite ant žalios mygtukų su juodo kryžiaus žemyn,; žalią mygtuką su brūkšneliu, jei norite nutolinti; arba žalių rodyklių gretimoms žemėlapius.


METAR-TAF: